createdAt,value
2022-08-09T00:06:18.464Z,99419.25
2022-08-09T00:16:03.066Z,99418.69
2022-08-09T00:26:33.368Z,99417.72
2022-08-09T00:37:02.753Z,99417.07
2022-08-09T00:47:39.646Z,99422.52
2022-08-09T00:58:09.221Z,99424.84
2022-08-09T01:08:51.596Z,99432.80
2022-08-09T01:19:42.527Z,99435.20
2022-08-09T01:30:28.623Z,99433.48
2022-08-09T01:41:06.129Z,99433.64
2022-08-09T01:51:37.273Z,99433.03
2022-08-09T02:02:15.297Z,99432.46
2022-08-09T02:12:46.706Z,99439.87
2022-08-09T02:23:20.613Z,99442.36
2022-08-09T02:34:06.629Z,99442.70
2022-08-09T02:44:40.044Z,99440.59
2022-08-09T02:55:19.978Z,99449.66
2022-08-09T03:05:52.195Z,99447.12
2022-08-09T03:16:26.150Z,99452.50
2022-08-09T03:26:56.348Z,99455.96
2022-08-09T03:37:55.213Z,99453.02
2022-08-09T03:48:19.144Z,99449.72
2022-08-09T03:59:00.579Z,99442.83
2022-08-09T04:09:44.456Z,99443.98
2022-08-09T04:20:20.247Z,99455.93
2022-08-09T04:30:52.561Z,99466.05
2022-08-09T04:41:23.836Z,99470.83
2022-08-09T04:51:53.979Z,99473.55
2022-08-09T05:02:24.015Z,99480.77
2022-08-09T05:12:56.785Z,99486.73
2022-08-09T05:23:57.102Z,99486.19
2022-08-09T05:34:17.051Z,99490.18
2022-08-09T05:44:47.699Z,99495.64
2022-08-09T05:55:21.189Z,99494.88
2022-08-09T06:06:02.727Z,99490.45
2022-08-09T06:16:35.574Z,99492.93
2022-08-09T06:27:04.826Z,99498.92
2022-08-09T06:37:53.029Z,99497.92
2022-08-09T06:48:26.258Z,99498.06
2022-08-09T07:00:54.027Z,99497.44
2022-08-09T07:09:54.198Z,99500.99
2022-08-09T07:20:27.189Z,99505.76
2022-08-09T07:30:56.781Z,99512.20
2022-08-09T07:41:26.009Z,99513.54
2022-08-09T07:52:04.352Z,99523.85
2022-08-09T08:02:48.043Z,99526.98
2022-08-09T08:13:20.168Z,99529.43
2022-08-09T08:23:55.745Z,99531.30
2022-08-09T08:34:25.726Z,99522.91
2022-08-09T08:44:59.083Z,99520.66
2022-08-09T08:55:42.442Z,99532.77
2022-08-09T09:06:14.461Z,99533.11
2022-08-09T09:16:43.686Z,99530.95
2022-08-09T09:28:03.084Z,99522.40
2022-08-09T09:38:04.193Z,99523.73
2022-08-09T09:48:33.711Z,99521.80
2022-08-09T09:59:03.564Z,99524.80
2022-08-09T10:09:54.680Z,99510.20
2022-08-09T10:20:35.725Z,99513.64
2022-08-09T10:42:04.459Z,99507.48
2022-08-09T10:52:49.727Z,99504.55
2022-08-09T11:03:50.728Z,99498.62
2022-08-09T11:14:38.432Z,99492.52
2022-08-09T11:25:10.284Z,99485.98
2022-08-09T11:35:50.031Z,99478.09
2022-08-09T11:46:26.662Z,99478.27
2022-08-09T11:57:56.464Z,99470.68
2022-08-09T12:08:28.237Z,99472.19
2022-08-09T12:18:57.811Z,99476.14
2022-08-09T12:29:44.725Z,99473.94
2022-08-09T12:40:19.194Z,99464.63
2022-08-09T12:50:48.964Z,99471.65
2022-08-09T13:01:28.965Z,99465.65
2022-08-09T13:12:06.322Z,99462.90
2022-08-09T13:23:00.187Z,99455.44
2022-08-09T13:33:51.698Z,99457.09
2022-08-09T13:44:19.776Z,99457.48
2022-08-09T13:55:00.224Z,99457.45
2022-08-09T14:05:58.731Z,99459.25
2022-08-09T14:16:28.695Z,99457.50
2022-08-09T14:26:58.284Z,99456.85
2022-08-09T14:37:28.435Z,99461.52
2022-08-09T14:48:00.264Z,99453.73
2022-08-09T14:58:33.464Z,99449.54
2022-08-09T15:09:02.772Z,99450.04
2022-08-09T15:19:36.026Z,99459.00
2022-08-09T15:30:56.814Z,99453.30
2022-08-09T15:40:55.580Z,99460.98
2022-08-09T15:51:44.592Z,99460.09
2022-08-09T16:02:15.023Z,99457.34
2022-08-09T16:12:50.166Z,99459.81
2022-08-09T16:23:21.698Z,99456.81
2022-08-09T16:33:51.052Z,99457.84
2022-08-09T16:44:21.510Z,99461.40
2022-08-09T16:54:57.182Z,99466.29
2022-08-09T17:06:07.112Z,99468.12
2022-08-09T17:16:16.678Z,99478.39
2022-08-09T17:26:47.765Z,99478.77
2022-08-09T17:37:22.649Z,99484.80
2022-08-09T17:47:54.949Z,99483.63
2022-08-09T17:58:26.936Z,99492.27
2022-08-09T18:08:56.650Z,99504.30
2022-08-09T18:20:54.435Z,99510.98
2022-08-09T18:30:41.262Z,99528.70
2022-08-09T18:41:06.193Z,99546.93
2022-08-09T18:51:38.761Z,99548.98
2022-08-09T19:02:32.111Z,99557.05
2022-08-09T19:13:18.602Z,99561.84
2022-08-09T19:24:37.354Z,99564.41
2022-08-09T19:34:44.548Z,99564.05
2022-08-09T19:45:16.553Z,99565.69
2022-08-09T19:56:02.123Z,99568.02
2022-08-09T20:06:35.928Z,99569.18
2022-08-09T20:17:08.666Z,99574.55
2022-08-09T20:27:40.262Z,99585.91
2022-08-09T20:38:21.849Z,99585.64
2022-08-09T20:49:00.213Z,99591.30
2022-08-09T21:00:19.280Z,99587.09
2022-08-09T21:10:20.257Z,99587.53
2022-08-09T21:20:50.325Z,99584.63
2022-08-09T21:31:48.116Z,99597.88
2022-08-09T21:42:17.976Z,99602.14
2022-08-09T21:52:58.672Z,99599.48
2022-08-09T22:03:27.978Z,99599.14
2022-08-09T22:13:57.102Z,99593.14
2022-08-09T22:24:27.843Z,99589.27
2022-08-09T22:35:02.723Z,99586.67
2022-08-09T22:48:12.246Z,99587.23
2022-08-09T22:56:33.576Z,99586.77
2022-08-09T23:07:31.101Z,99586.29
2022-08-09T23:18:09.771Z,99593.14
2022-08-09T23:28:39.296Z,99587.55
2022-08-09T23:39:09.888Z,99589.27
2022-08-09T23:49:39.162Z,99586.10
